Terminal Aerodrome Forecast
Issued by NWS

Home | Current Version | Previous Version | Graphics & Text | Print | Product List | Glossary On
Versions: 1 2 3 4 5 6 7 8 9 10 11 12 13 14 15 16 17
000
FTUS43 KICT 250100 AAA
TAFSLN
TAF AMD
KSLN 250137Z 2502/2524 18015KT P6SM VCTS BKN070CB
      TEMPO 2502/2503 VRB20KT 5SM TSRA BKN050CB
     FM250300 15009KT P6SM SCT100 BKN150
     FM250900 18011KT P6SM FEW100 SCT200
     FM251800 19012G20KT P6SM FEW250=

USA.gov is the U.S. government's official web portal to all federal, state and local government web resources and services.